createdAt,value
2022-12-29T00:01:53.957Z,55.57
2022-12-29T00:04:22.004Z,56.36
2022-12-29T00:06:50.291Z,55.72
2022-12-29T00:09:19.765Z,55.92
2022-12-29T00:11:48.402Z,55.54
2022-12-29T00:14:33.722Z,54.99
2022-12-29T00:17:01.941Z,54.99
2022-12-29T00:19:47.666Z,55.38
2022-12-29T00:22:34.290Z,55.31
2022-12-29T00:25:21.629Z,55.11
2022-12-29T00:28:07.454Z,55.39
2022-12-29T00:30:55.211Z,55.73
2022-12-29T00:33:44.926Z,54.66
2022-12-29T00:36:17.997Z,55.35
2022-12-29T00:39:07.617Z,55.03
2022-12-29T00:41:54.709Z,55.00
2022-12-29T00:44:22.757Z,54.79
2022-12-29T00:46:51.078Z,54.88
2022-12-29T00:49:33.283Z,54.96
2022-12-29T00:52:04.454Z,55.34
2022-12-29T00:54:35.898Z,54.86
2022-12-29T00:57:06.867Z,55.39
2022-12-29T00:59:37.301Z,55.39
2022-12-29T01:02:05.603Z,55.45
2022-12-29T01:04:33.770Z,56.00
2022-12-29T01:07:01.969Z,56.84
2022-12-29T01:09:47.918Z,56.73
2022-12-29T01:12:17.288Z,57.93
2022-12-29T01:14:46.349Z,57.53
2022-12-29T01:17:14.502Z,58.32
2022-12-29T01:19:42.445Z,57.50
2022-12-29T01:22:10.610Z,57.98
2022-12-29T01:24:38.912Z,57.91
2022-12-29T01:27:06.945Z,57.18
2022-12-29T01:29:36.657Z,58.12
2022-12-29T01:32:04.793Z,58.02
2022-12-29T01:34:32.812Z,58.66
2022-12-29T01:37:00.911Z,59.11
2022-12-29T01:39:28.955Z,59.27
2022-12-29T01:41:57.117Z,58.63
2022-12-29T01:44:51.888Z,59.01
2022-12-29T01:47:27.220Z,58.91
2022-12-29T01:49:57.038Z,58.54
2022-12-29T01:52:27.059Z,59.57
2022-12-29T01:54:57.370Z,59.37
2022-12-29T01:57:28.804Z,60.37
2022-12-29T02:00:04.668Z,59.56
2022-12-29T02:02:34.291Z,60.20
2022-12-29T02:05:09.706Z,60.91
2022-12-29T02:07:38.682Z,60.92
2022-12-29T02:10:08.086Z,60.32
2022-12-29T02:12:36.279Z,59.96
2022-12-29T02:15:07.055Z,60.49
2022-12-29T02:17:57.937Z,59.84
2022-12-29T02:20:48.909Z,61.53
2022-12-29T02:23:39.246Z,60.48
2022-12-29T02:26:26.047Z,61.41
2022-12-29T02:29:23.183Z,60.02
2022-12-29T02:32:01.045Z,60.30
2022-12-29T02:34:42.206Z,61.68
2022-12-29T02:37:22.010Z,62.09
2022-12-29T02:39:59.245Z,60.65
2022-12-29T02:42:36.376Z,60.79
2022-12-29T02:45:08.403Z,60.84
2022-12-29T02:47:47.241Z,61.17
2022-12-29T02:50:19.764Z,61.47
2022-12-29T02:52:53.586Z,62.05
2022-12-29T02:55:20.666Z,61.38
2022-12-29T02:57:48.681Z,61.74
2022-12-29T03:00:19.684Z,61.42
2022-12-29T03:03:08.569Z,61.13
2022-12-29T03:06:07.469Z,61.75
2022-12-29T03:08:51.585Z,62.09
2022-12-29T03:11:37.442Z,61.43
2022-12-29T03:14:29.856Z,62.15
2022-12-29T03:17:01.852Z,62.19
2022-12-29T03:19:36.819Z,62.60
2022-12-29T03:22:25.727Z,62.79
2022-12-29T03:24:58.633Z,62.66
2022-12-29T03:27:31.472Z,62.20
2022-12-29T03:30:03.063Z,62.18
2022-12-29T03:32:34.857Z,61.92
2022-12-29T03:35:05.759Z,62.20
2022-12-29T03:37:39.893Z,62.58
2022-12-29T03:40:09.439Z,62.52
2022-12-29T03:42:39.451Z,61.70
2022-12-29T03:45:09.871Z,62.06
2022-12-29T03:47:38.523Z,60.55
2022-12-29T03:50:09.711Z,60.83
2022-12-29T03:52:37.845Z,61.29
2022-12-29T03:55:06.747Z,61.03
2022-12-29T03:57:35.706Z,60.05
2022-12-29T04:00:05.093Z,60.23
2022-12-29T04:02:33.487Z,60.06
2022-12-29T04:05:02.697Z,60.24
2022-12-29T04:07:32.121Z,60.43
2022-12-29T04:10:00.358Z,60.01
2022-12-29T04:12:28.459Z,59.49
2022-12-29T04:14:56.458Z,59.44
2022-12-29T04:17:24.419Z,59.20
2022-12-29T04:20:15.732Z,58.86
2022-12-29T04:22:46.386Z,59.40
2022-12-29T04:25:14.552Z,58.88
2022-12-29T04:27:42.537Z,60.20
2022-12-29T04:30:12.543Z,59.34
2022-12-29T04:32:40.677Z,59.71
2022-12-29T04:35:09.601Z,60.11
2022-12-29T04:37:37.740Z,60.04
2022-12-29T04:40:08.882Z,59.66
2022-12-29T04:42:37.137Z,60.23
2022-12-29T04:45:05.597Z,59.49
2022-12-29T04:47:33.612Z,59.99
2022-12-29T04:50:02.630Z,59.40
2022-12-29T04:52:30.769Z,59.71
2022-12-29T04:54:59.046Z,59.65
2022-12-29T04:57:28.729Z,60.05
2022-12-29T04:59:56.849Z,60.00
2022-12-29T05:02:25.187Z,60.01
2022-12-29T05:04:53.396Z,60.32
2022-12-29T05:07:21.447Z,60.91
2022-12-29T05:09:49.540Z,61.63
2022-12-29T05:12:18.042Z,61.29
2022-12-29T05:14:47.472Z,62.38
2022-12-29T05:17:17.280Z,61.53
2022-12-29T05:19:45.504Z,61.95
2022-12-29T05:22:13.510Z,62.10
2022-12-29T05:24:42.526Z,61.90
2022-12-29T05:27:10.914Z,62.76
2022-12-29T05:29:39.166Z,62.60
2022-12-29T05:32:08.720Z,62.69
2022-12-29T05:34:36.746Z,62.92
2022-12-29T05:37:04.749Z,62.14
2022-12-29T05:39:32.895Z,61.95
2022-12-29T05:42:00.938Z,62.58
2022-12-29T05:44:29.033Z,62.13
2022-12-29T05:46:57.259Z,61.54
2022-12-29T05:49:26.733Z,62.65
2022-12-29T05:51:54.770Z,62.68
2022-12-29T05:54:22.770Z,62.78
2022-12-29T05:56:50.737Z,62.80
2022-12-29T05:59:18.801Z,62.50
2022-12-29T06:01:46.943Z,62.73
2022-12-29T06:04:15.259Z,63.41
2022-12-29T06:06:44.608Z,63.70
2022-12-29T06:09:15.536Z,62.36
2022-12-29T06:11:44.044Z,62.67
2022-12-29T06:14:12.143Z,62.94
2022-12-29T06:16:40.320Z,62.63
2022-12-29T06:19:08.321Z,62.66
2022-12-29T06:21:36.379Z,64.50
2022-12-29T06:24:06.704Z,64.18
2022-12-29T06:26:34.760Z,65.32
2022-12-29T06:29:03.856Z,65.15
2022-12-29T06:31:32.750Z,64.86
2022-12-29T06:34:08.335Z,63.95
2022-12-29T06:36:36.732Z,63.76
2022-12-29T06:39:06.185Z,63.25
2022-12-29T06:41:34.545Z,63.21
2022-12-29T06:44:02.535Z,62.47
2022-12-29T06:46:30.797Z,62.91
2022-12-29T06:48:59.019Z,62.50
2022-12-29T06:51:27.168Z,62.49
2022-12-29T06:53:55.475Z,61.84
2022-12-29T06:56:24.896Z,62.09
2022-12-29T06:58:52.916Z,63.07
2022-12-29T07:01:21.199Z,62.84
2022-12-29T07:03:49.338Z,62.62
2022-12-29T07:06:17.559Z,61.47
2022-12-29T07:08:45.863Z,61.36
2022-12-29T07:11:13.932Z,62.57
2022-12-29T07:13:43.583Z,62.42
2022-12-29T07:16:12.758Z,61.94
2022-12-29T07:18:40.897Z,63.44
2022-12-29T07:21:08.861Z,62.76
2022-12-29T07:23:37.093Z,62.38
2022-12-29T07:26:07.394Z,63.44
2022-12-29T07:28:36.407Z,62.68
2022-12-29T07:31:06.217Z,62.98
2022-12-29T07:33:34.986Z,62.33
2022-12-29T07:36:02.918Z,62.62
2022-12-29T07:38:31.119Z,63.13
2022-12-29T07:41:00.424Z,63.99
2022-12-29T07:43:28.493Z,64.04
2022-12-29T07:45:56.644Z,63.50
2022-12-29T07:48:26.090Z,63.53
2022-12-29T07:50:54.739Z,63.84
2022-12-29T07:53:22.796Z,63.65
2022-12-29T07:55:50.872Z,63.19
2022-12-29T07:58:19.712Z,64.20
2022-12-29T08:00:47.666Z,64.46
2022-12-29T08:03:15.670Z,63.47
2022-12-29T08:05:45.132Z,63.28
2022-12-29T08:08:13.108Z,63.65
2022-12-29T08:10:41.392Z,63.32
2022-12-29T08:13:09.428Z,63.34
2022-12-29T08:15:39.163Z,63.59
2022-12-29T08:18:07.506Z,63.02
2022-12-29T08:20:35.494Z,62.46
2022-12-29T08:23:04.802Z,62.70
2022-12-29T08:25:32.963Z,62.88
2022-12-29T08:28:01.176Z,62.04
2022-12-29T08:30:29.327Z,62.13
2022-12-29T08:32:57.401Z,61.71
2022-12-29T08:35:25.377Z,60.98
2022-12-29T08:37:53.948Z,60.69
2022-12-29T08:40:23.310Z,60.88
2022-12-29T08:42:51.775Z,60.06
2022-12-29T08:45:19.950Z,59.48
2022-12-29T08:47:47.929Z,58.45
2022-12-29T08:50:16.191Z,58.55
2022-12-29T08:52:44.154Z,57.99
2022-12-29T08:55:12.398Z,57.03
2022-12-29T08:57:42.341Z,56.01
2022-12-29T09:00:11.777Z,55.61
2022-12-29T09:02:40.035Z,54.82
2022-12-29T09:05:09.394Z,54.44
2022-12-29T09:07:39.551Z,53.80
2022-12-29T09:10:08.800Z,53.46
2022-12-29T09:12:37.103Z,52.97
2022-12-29T09:15:08.172Z,52.38
2022-12-29T09:17:48.288Z,52.24
2022-12-29T09:20:18.432Z,52.98
2022-12-29T09:22:48.279Z,52.06
2022-12-29T09:25:16.573Z,52.48
2022-12-29T09:27:44.689Z,52.60
2022-12-29T09:30:15.786Z,51.92
2022-12-29T09:32:45.422Z,52.09
2022-12-29T09:35:15.174Z,52.26
2022-12-29T09:37:43.706Z,51.94
2022-12-29T09:40:27.021Z,52.21
2022-12-29T09:43:08.014Z,51.00
2022-12-29T09:45:44.461Z,51.26
2022-12-29T09:48:18.434Z,50.88
2022-12-29T09:50:52.456Z,51.11
2022-12-29T09:53:27.993Z,51.57
2022-12-29T09:56:00.176Z,51.42
2022-12-29T09:58:34.960Z,50.93
2022-12-29T10:01:08.209Z,50.33
2022-12-29T10:03:53.161Z,50.63
2022-12-29T10:06:26.626Z,51.29
2022-12-29T10:09:00.469Z,50.98
2022-12-29T10:11:43.618Z,51.02
2022-12-29T10:14:30.119Z,51.15
2022-12-29T10:17:10.897Z,51.67
2022-12-29T10:19:56.761Z,51.71
2022-12-29T10:22:41.044Z,51.13
2022-12-29T10:25:15.110Z,52.05
2022-12-29T10:27:45.806Z,51.48
2022-12-29T10:30:15.445Z,50.88
2022-12-29T10:32:51.171Z,51.36
2022-12-29T10:35:22.072Z,50.56
2022-12-29T10:37:59.743Z,51.64
2022-12-29T10:40:33.958Z,50.84
2022-12-29T10:43:22.889Z,50.67
2022-12-29T10:45:51.756Z,52.00
2022-12-29T10:48:30.123Z,51.58
2022-12-29T10:51:02.603Z,51.65
2022-12-29T10:53:37.504Z,52.15
2022-12-29T10:56:24.143Z,51.71
2022-12-29T10:58:53.567Z,52.11
2022-12-29T11:01:21.902Z,51.82
2022-12-29T11:04:06.171Z,52.02
2022-12-29T11:06:35.089Z,51.44
2022-12-29T11:09:12.112Z,49.60
2022-12-29T11:11:40.373Z,49.21
2022-12-29T11:14:15.193Z,48.95
2022-12-29T11:16:45.392Z,48.38
2022-12-29T11:19:26.014Z,48.04
2022-12-29T11:21:54.835Z,48.99
2022-12-29T11:24:26.047Z,49.52
2022-12-29T11:26:58.397Z,49.42
2022-12-29T11:29:28.873Z,48.69
2022-12-29T11:31:59.931Z,48.81
2022-12-29T11:34:35.295Z,48.63
2022-12-29T11:37:07.417Z,48.44
2022-12-29T11:39:41.528Z,48.98
2022-12-29T11:42:16.767Z,48.81
2022-12-29T11:44:47.514Z,48.99
2022-12-29T11:47:25.914Z,48.35
2022-12-29T11:49:58.406Z,48.42
2022-12-29T11:52:29.027Z,48.69
2022-12-29T11:54:58.677Z,48.88
2022-12-29T11:57:27.996Z,48.25
2022-12-29T11:59:57.300Z,48.78
2022-12-29T12:02:53.067Z,48.42
2022-12-29T12:05:33.151Z,48.53
2022-12-29T12:08:09.499Z,48.59
2022-12-29T12:10:43.892Z,48.84
2022-12-29T12:13:22.888Z,48.74
2022-12-29T12:15:57.467Z,48.75
2022-12-29T12:18:34.528Z,48.08
2022-12-29T12:21:12.727Z,48.38
2022-12-29T12:23:55.990Z,47.33
2022-12-29T12:26:32.367Z,46.83
2022-12-29T12:29:05.215Z,47.47
2022-12-29T12:31:47.970Z,48.02
2022-12-29T12:34:22.421Z,47.18
2022-12-29T12:37:02.724Z,47.39
2022-12-29T12:39:41.208Z,47.32
2022-12-29T12:42:26.400Z,47.17
2022-12-29T12:45:06.335Z,47.21
2022-12-29T12:47:52.811Z,46.72
2022-12-29T12:50:47.490Z,46.34
2022-12-29T12:53:33.616Z,46.07
2022-12-29T12:56:19.050Z,45.38
2022-12-29T12:58:56.081Z,45.11
2022-12-29T13:01:37.897Z,45.25
2022-12-29T13:04:38.260Z,45.34
2022-12-29T13:07:15.617Z,44.73
2022-12-29T13:10:02.457Z,44.71
2022-12-29T13:12:41.220Z,44.12
2022-12-29T13:15:23.486Z,44.97
2022-12-29T13:18:01.060Z,44.95
2022-12-29T13:20:38.681Z,44.89
2022-12-29T13:23:13.385Z,44.31
2022-12-29T13:25:50.460Z,43.94
2022-12-29T13:28:27.839Z,43.43
2022-12-29T13:31:02.876Z,44.37
2022-12-29T13:33:42.355Z,44.37
2022-12-29T13:36:22.568Z,44.53
2022-12-29T13:38:54.207Z,44.62
2022-12-29T13:41:31.537Z,45.86
2022-12-29T13:44:02.795Z,45.52
2022-12-29T13:46:35.630Z,45.08
2022-12-29T13:49:09.122Z,45.25
2022-12-29T13:51:43.556Z,48.25
2022-12-29T13:54:23.932Z,49.11
2022-12-29T13:56:58.398Z,49.40
2022-12-29T13:59:41.881Z,47.59
2022-12-29T14:02:29.647Z,47.74
2022-12-29T14:05:00.592Z,49.07
2022-12-29T14:07:29.254Z,48.68
2022-12-29T14:09:59.534Z,48.64
2022-12-29T14:12:35.285Z,48.37
2022-12-29T14:15:22.238Z,49.54
2022-12-29T14:18:15.805Z,49.97
2022-12-29T14:20:53.983Z,49.09
2022-12-29T14:23:37.064Z,49.27
2022-12-29T14:26:18.665Z,48.67
2022-12-29T14:28:49.258Z,48.78
2022-12-29T14:31:41.778Z,48.59
2022-12-29T14:34:32.724Z,48.21
2022-12-29T14:37:03.371Z,48.83
2022-12-29T14:39:36.878Z,49.18
2022-12-29T14:42:11.023Z,50.11
2022-12-29T14:44:50.192Z,50.59
2022-12-29T14:47:22.972Z,51.07
2022-12-29T14:49:51.979Z,51.25
2022-12-29T14:52:24.615Z,52.13
2022-12-29T14:54:55.821Z,52.55
2022-12-29T14:57:30.315Z,59.17
2022-12-29T15:00:07.594Z,61.90
2022-12-29T15:02:42.521Z,65.61
2022-12-29T15:05:28.946Z,67.56
2022-12-29T15:08:00.146Z,69.20
2022-12-29T15:10:34.315Z,69.06
2022-12-29T15:13:06.625Z,69.53
2022-12-29T15:15:40.517Z,69.76
2022-12-29T15:18:16.845Z,68.73
2022-12-29T15:20:45.363Z,69.08
2022-12-29T15:23:15.912Z,70.48
2022-12-29T15:25:51.942Z,70.25
2022-12-29T15:28:23.433Z,70.57
2022-12-29T15:31:05.142Z,71.10
2022-12-29T15:33:33.185Z,70.33
2022-12-29T15:36:12.795Z,70.31
2022-12-29T15:38:41.277Z,71.33
2022-12-29T15:41:23.809Z,70.91
2022-12-29T15:43:59.424Z,69.91
2022-12-29T15:46:29.568Z,70.75
2022-12-29T15:48:57.940Z,70.97
2022-12-29T15:51:31.848Z,69.96
2022-12-29T15:54:00.372Z,69.31
2022-12-29T15:56:31.390Z,69.42
2022-12-29T15:58:59.989Z,68.71
2022-12-29T16:01:33.385Z,68.56
2022-12-29T16:04:03.319Z,67.82
2022-12-29T16:06:34.176Z,67.35
2022-12-29T16:09:04.608Z,67.46
2022-12-29T16:11:37.241Z,67.01
2022-12-29T16:14:11.845Z,66.22
2022-12-29T16:16:43.993Z,66.00
2022-12-29T16:19:16.867Z,66.11
2022-12-29T16:21:45.857Z,66.25
2022-12-29T16:24:17.263Z,66.13
2022-12-29T16:26:50.889Z,65.75
2022-12-29T16:29:21.899Z,66.42
2022-12-29T16:32:01.819Z,66.51
2022-12-29T16:34:32.902Z,65.65
2022-12-29T16:37:02.355Z,65.71
2022-12-29T16:39:33.541Z,66.20
2022-12-29T16:42:02.364Z,66.38
2022-12-29T16:44:32.485Z,65.94
2022-12-29T16:47:19.361Z,65.60
2022-12-29T16:49:53.001Z,65.47
2022-12-29T16:52:23.941Z,65.74
2022-12-29T16:54:55.731Z,65.76
2022-12-29T16:57:30.168Z,65.83
2022-12-29T17:00:01.431Z,65.79
2022-12-29T17:02:33.428Z,66.14
2022-12-29T17:05:01.830Z,66.56
2022-12-29T17:07:30.781Z,66.81
2022-12-29T17:09:59.042Z,67.91
2022-12-29T17:12:29.931Z,69.13
2022-12-29T17:14:59.908Z,68.44
2022-12-29T17:17:34.633Z,68.92
2022-12-29T17:20:05.562Z,68.82
2022-12-29T17:22:34.330Z,68.02
2022-12-29T17:25:03.769Z,67.27
2022-12-29T17:27:37.161Z,67.73
2022-12-29T17:30:11.083Z,67.42
2022-12-29T17:32:41.374Z,66.99
2022-12-29T17:35:15.705Z,66.78
2022-12-29T17:37:44.214Z,66.06
2022-12-29T17:40:20.609Z,65.79
2022-12-29T17:42:50.344Z,65.89
2022-12-29T17:45:21.779Z,65.82
2022-12-29T17:47:51.307Z,65.51
2022-12-29T17:50:21.975Z,65.19
2022-12-29T17:52:55.348Z,65.39
2022-12-29T17:55:34.781Z,65.22
2022-12-29T17:58:16.383Z,65.39
2022-12-29T18:00:44.643Z,65.42
2022-12-29T18:03:18.117Z,65.96
2022-12-29T18:05:46.607Z,65.92
2022-12-29T18:08:14.807Z,65.56
2022-12-29T18:10:43.635Z,65.83
2022-12-29T18:13:22.412Z,65.84
2022-12-29T18:15:51.134Z,65.51
2022-12-29T18:18:22.719Z,65.86
2022-12-29T18:20:52.809Z,66.07
2022-12-29T18:23:22.825Z,66.52
2022-12-29T18:25:54.091Z,67.95
2022-12-29T18:28:23.618Z,67.73
2022-12-29T18:30:51.783Z,67.60
2022-12-29T18:33:26.046Z,67.84
2022-12-29T18:35:57.632Z,67.10
2022-12-29T18:38:26.220Z,67.40
2022-12-29T18:40:54.878Z,67.02
2022-12-29T18:43:23.160Z,65.99
2022-12-29T18:45:51.399Z,66.39
2022-12-29T18:48:21.911Z,65.73
2022-12-29T18:50:52.000Z,66.19
2022-12-29T18:53:22.186Z,65.66
2022-12-29T18:55:50.525Z,65.22
2022-12-29T18:58:18.550Z,65.46
2022-12-29T19:00:49.957Z,66.53
2022-12-29T19:03:19.977Z,66.00
2022-12-29T19:05:49.966Z,66.54
2022-12-29T19:08:18.171Z,66.52
2022-12-29T19:10:47.258Z,66.79
2022-12-29T19:13:18.568Z,66.71
2022-12-29T19:15:47.827Z,66.53
2022-12-29T19:21:09.722Z,67.15
2022-12-29T19:23:37.960Z,67.19
2022-12-29T19:26:06.245Z,66.57
2022-12-29T19:28:34.615Z,67.21
2022-12-29T19:31:04.749Z,67.49
2022-12-29T19:33:32.913Z,67.75
2022-12-29T19:36:02.946Z,67.80
2022-12-29T19:38:32.643Z,67.73
2022-12-29T19:41:00.830Z,68.07
2022-12-29T19:43:29.024Z,68.35
2022-12-29T19:45:57.252Z,69.47
2022-12-29T19:48:28.284Z,68.69
2022-12-29T19:50:56.279Z,69.13
2022-12-29T19:53:24.340Z,68.57
2022-12-29T19:55:53.754Z,68.80
2022-12-29T19:58:21.853Z,69.21
2022-12-29T20:00:51.370Z,68.44
2022-12-29T20:03:20.417Z,68.47
2022-12-29T20:05:51.601Z,67.97
2022-12-29T20:08:19.763Z,67.78
2022-12-29T20:10:47.769Z,67.50
2022-12-29T20:13:17.187Z,68.20
2022-12-29T20:15:45.298Z,68.82
2022-12-29T20:18:14.692Z,68.56
2022-12-29T20:20:43.396Z,69.24
2022-12-29T20:23:11.597Z,68.92
2022-12-29T20:25:45.162Z,68.50
2022-12-29T20:28:15.492Z,68.25
2022-12-29T20:30:46.042Z,68.36
2022-12-29T20:33:15.768Z,68.02
2022-12-29T20:35:43.756Z,69.25
2022-12-29T20:38:12.392Z,69.28
2022-12-29T20:40:46.173Z,69.30
2022-12-29T20:43:16.256Z,69.40
2022-12-29T20:45:46.145Z,71.23
2022-12-29T20:48:14.437Z,71.08
2022-12-29T20:50:42.841Z,71.17
2022-12-29T20:53:11.780Z,70.88
2022-12-29T20:55:41.293Z,70.96
2022-12-29T20:58:25.373Z,69.82
2022-12-29T21:00:55.885Z,69.99
2022-12-29T21:03:25.596Z,69.86
2022-12-29T21:05:55.324Z,69.81
2022-12-29T21:08:23.942Z,69.14
2022-12-29T21:10:52.428Z,69.20
2022-12-29T21:13:21.158Z,69.10
2022-12-29T21:15:49.882Z,69.17
2022-12-29T21:18:19.407Z,69.74
2022-12-29T21:20:56.371Z,69.91
2022-12-29T21:23:24.805Z,69.32
2022-12-29T21:25:53.827Z,69.53
2022-12-29T21:28:22.990Z,72.04
2022-12-29T21:30:52.360Z,72.97
2022-12-29T21:33:22.942Z,73.77
2022-12-29T21:35:51.304Z,73.31
2022-12-29T21:38:19.439Z,72.58
2022-12-29T21:40:47.599Z,71.12
2022-12-29T21:43:15.588Z,70.85
2022-12-29T21:45:42.601Z,70.37
2022-12-29T21:48:24.056Z,70.73
2022-12-29T21:51:13.247Z,70.93
2022-12-29T21:53:43.682Z,70.50
2022-12-29T21:56:14.302Z,70.40
2022-12-29T21:59:02.025Z,69.85
2022-12-29T22:01:49.939Z,69.78
2022-12-29T22:04:37.559Z,70.14
2022-12-29T22:07:26.411Z,70.16
2022-12-29T22:10:12.327Z,70.65
2022-12-29T22:12:59.957Z,69.67
2022-12-29T22:15:29.237Z,70.38
2022-12-29T22:17:57.458Z,69.76
2022-12-29T22:20:27.358Z,69.70
2022-12-29T22:22:57.134Z,69.91
2022-12-29T22:25:25.228Z,69.69
2022-12-29T22:27:58.977Z,69.63
2022-12-29T22:30:28.435Z,69.61
2022-12-29T22:32:58.175Z,69.42
2022-12-29T22:35:26.464Z,69.27
2022-12-29T22:37:56.098Z,69.03
2022-12-29T22:40:24.381Z,68.99
2022-12-29T22:42:52.516Z,68.99
2022-12-29T22:45:20.600Z,69.73
2022-12-29T22:47:48.620Z,70.36
2022-12-29T22:50:16.677Z,70.42
2022-12-29T22:52:44.999Z,70.61
2022-12-29T22:55:14.451Z,70.56
2022-12-29T22:57:42.454Z,71.09
2022-12-29T23:00:11.291Z,70.77
2022-12-29T23:02:39.603Z,70.69
2022-12-29T23:05:08.109Z,70.94
2022-12-29T23:07:36.579Z,70.96
2022-12-29T23:10:05.901Z,70.68
2022-12-29T23:12:35.273Z,71.13
2022-12-29T23:15:03.292Z,71.41
2022-12-29T23:17:31.535Z,72.16
2022-12-29T23:19:59.701Z,71.98
2022-12-29T23:22:27.687Z,73.53
2022-12-29T23:24:55.979Z,73.06
2022-12-29T23:27:24.545Z,72.74
2022-12-29T23:29:53.921Z,72.28
2022-12-29T23:32:22.277Z,72.73
2022-12-29T23:34:50.299Z,72.92
2022-12-29T23:37:18.281Z,72.89
2022-12-29T23:39:46.453Z,72.41
2022-12-29T23:42:14.434Z,74.09
2022-12-29T23:44:42.417Z,73.35
2022-12-29T23:47:11.786Z,72.54
2022-12-29T23:49:40.046Z,74.30
2022-12-29T23:52:08.073Z,73.75
2022-12-29T23:54:36.040Z,74.24
2022-12-29T23:57:04.082Z,73.17
2022-12-29T23:59:32.075Z,72.90
